Time;durP1;ratioP1;P1;durP2;ratioP2;P2;SDS_P1;SDS_P2;PMS_P1;PMS_P2;Temp;Humidity;BMP_temperature;BMP_pressure;BME280_temperature;BME280_humidity;BME280_pressure;Samples;Min_cycle;Max_cycle;Signal;HPM_P1;HPM_P2
2022/03/28 00:02:28;;;;;;;6.13;5.63;;;23.10;96.40;;;;;;5066210;28;20441;-61
2022/03/28 00:04:59;;;;;;;6.10;5.60;;;23.30;95.10;;;;;;5066716;28;20610;-59
2022/03/28 00:07:30;;;;;;;6.63;6.13;;;23.20;95.70;;;;;;5066782;28;20455;-60
2022/03/28 00:10:01;;;;;;;6.93;6.23;;;23.20;94.10;;;;;;5067438;28;20606;-59
2022/03/28 00:12:32;;;;;;;7.07;6.37;;;23.00;94.40;;;;;;5066792;28;20474;-59
2022/03/28 00:15:04;;;;;;;6.40;5.90;;;23.10;94.90;;;;;;5058814;28;20464;-60
2022/03/28 00:17:37;;;;;;;6.53;6.00;;;23.10;94.70;;;;;;5074249;28;20508;-59
2022/03/28 00:20:11;;;;;;;5.67;5.17;;;22.80;96.50;;;;;;5064693;28;20852;-59
2022/03/28 00:22:42;;;;;;;7.37;6.77;;;22.80;95.70;;;;;;5071471;28;20466;-60
2022/03/28 00:25:13;;;;;;;8.53;7.83;;;22.80;94.90;;;;;;5067490;28;20476;-59
2022/03/28 00:27:45;;;;;;;8.90;7.23;;;22.60;96.50;;;;;;5067729;28;20786;-59
2022/03/28 00:30:16;;;;;;;7.00;6.40;;;22.70;95.80;;;;;;5065877;28;20503;-59
2022/03/28 00:32:50;;;;;;;7.50;6.90;;;22.60;96.20;;;;;;5076201;28;20914;-60
2022/03/28 00:35:22;;;;;;;8.00;7.20;;;22.40;96.40;;;;;;5072948;28;20787;-59
2022/03/28 00:37:54;;;;;;;7.07;6.47;;;22.30;96.80;;;;;;5068689;28;20466;-59
2022/03/28 00:40:28;;;;;;;7.00;6.40;;;22.20;97.30;;;;;;5065174;28;20457;-59
2022/03/28 00:42:59;;;;;;;7.60;6.13;;;22.40;96.50;;;;;;5061197;28;20440;-59
2022/03/28 00:45:30;;;;;;;7.17;6.57;;;22.30;97.50;;;;;;5064666;28;20492;-59
2022/03/28 00:48:03;;;;;;;6.50;5.90;;;22.20;96.80;;;;;;5062812;28;20460;-60
2022/03/28 00:50:34;;;;;;;6.57;6.00;;;22.20;97.70;;;;;;5062233;28;20516;-60
2022/03/28 00:53:12;;;;;;;7.90;7.20;;;22.20;97.30;;;;;;5059243;28;20443;-59
2022/03/28 00:55:43;;;;;;;7.53;6.80;;;22.20;96.80;;;;;;5058356;28;20467;-60
2022/03/28 00:58:15;;;;;;;7.00;6.33;;;22.30;96.90;;;;;;5055396;28;20514;-59
2022/03/28 01:00:46;;;;;;;7.50;6.80;;;22.20;96.80;;;;;;5062091;28;20448;-60
2022/03/28 01:03:19;;;;;;;7.47;6.87;;;22.00;97.60;;;;;;5061332;28;20427;-63
2022/03/28 01:05:50;;;;;;;8.77;8.00;;;22.00;98.70;;;;;;5062657;28;20492;-60
2022/03/28 01:08:21;;;;;;;8.67;8.03;;;21.90;98.20;;;;;;5062627;28;20431;-64
2022/03/28 01:10:55;;;;;;;9.10;8.30;;;21.90;97.90;;;;;;5062149;28;20441;-65
2022/03/28 01:13:27;;;;;;;9.67;8.90;;;21.70;98.20;;;;;;5062128;28;20455;-64
2022/03/28 01:15:59;;;;;;;8.67;7.97;;;21.50;98.70;;;;;;5062828;28;20452;-64
2022/03/28 01:18:31;;;;;;;9.73;8.83;;;21.40;99.30;;;;;;5063267;28;20436;-61
2022/03/28 01:21:04;;;;;;;9.03;8.33;;;21.30;99.00;;;;;;5063310;28;20437;-60
2022/03/28 01:23:36;;;;;;;7.73;7.13;;;21.30;99.70;;;;;;5064085;28;20523;-61
2022/03/28 01:26:08;;;;;;;10.40;9.50;;;21.30;98.90;;;;;;5063571;28;20512;-60
2022/03/28 01:28:40;;;;;;;8.43;7.73;;;21.20;99.30;;;;;;5060048;28;20452;-60
2022/03/28 01:31:12;;;;;;;8.10;7.40;;;21.10;99.90;;;;;;5061489;28;20424;-62
2022/03/28 01:33:43;;;;;;;7.00;6.40;;;21.00;99.90;;;;;;5062533;28;20444;-60
2022/03/28 01:36:25;;;;;;;7.47;6.80;;;21.00;99.90;;;;;;5060518;28;20481;-61
2022/03/28 01:39:02;;;;;;;7.10;6.50;;;20.90;99.90;;;;;;5061130;28;21036;-63
2022/03/28 01:41:33;;;;;;;6.60;6.03;;;20.80;99.90;;;;;;5066392;28;20494;-61
2022/03/28 01:44:10;;;;;;;5.90;5.33;;;20.70;99.90;;;;;;5064787;28;20448;-60
2022/03/28 01:46:45;;;;;;;5.50;5.03;;;20.80;99.90;;;;;;5061515;28;21108;-62
2022/03/28 01:49:18;;;;;;;5.80;5.30;;;20.60;99.90;;;;;;5069436;28;20425;-61
2022/03/28 01:51:51;;;;;;;5.10;4.70;;;20.60;99.90;;;;;;5062081;28;20430;-63
2022/03/28 01:54:22;;;;;;;5.00;4.60;;;20.40;99.90;;;;;;5062164;28;20427;-58
2022/03/28 01:56:53;;;;;;;4.73;4.33;;;20.30;99.90;;;;;;5056351;28;20453;-56
2022/03/28 01:59:24;;;;;;;4.90;4.57;;;20.20;99.90;;;;;;5061786;28;20431;-55
2022/03/28 02:01:55;;;;;;;5.00;4.60;;;20.10;99.90;;;;;;5063165;28;20427;-56
2022/03/28 02:04:26;;;;;;;5.37;4.50;;;20.00;99.90;;;;;;5066701;28;20473;-58
2022/03/28 02:06:58;;;;;;;5.80;5.20;;;20.00;99.90;;;;;;5061517;28;20775;-58
2022/03/28 02:09:29;;;;;;;7.37;6.67;;;20.00;99.90;;;;;;5061634;28;20891;-58
2022/03/28 02:12:00;;;;;;;6.63;6.03;;;20.10;99.90;;;;;;5059847;28;20468;-59
2022/03/28 02:14:31;;;;;;;6.73;6.13;;;20.00;99.90;;;;;;5061384;28;20458;-58
2022/03/28 02:17:02;;;;;;;5.57;5.00;;;19.90;99.90;;;;;;5060728;28;20456;-58
2022/03/28 02:19:33;;;;;;;5.73;5.23;;;19.70;99.90;;;;;;5061204;28;20810;-58
2022/03/28 02:22:06;;;;;;;5.10;4.57;;;19.60;99.90;;;;;;5061387;28;20423;-59
2022/03/28 02:24:37;;;;;;;5.73;5.23;;;19.50;99.90;;;;;;5057808;28;20488;-58
2022/03/28 02:27:08;;;;;;;5.77;5.20;;;19.40;99.90;;;;;;5059885;28;20497;-58
2022/03/28 02:29:39;;;;;;;5.90;5.40;;;19.30;99.90;;;;;;5062882;28;20423;-58
2022/03/28 02:32:12;;;;;;;6.83;6.30;;;19.20;99.90;;;;;;5065845;28;20423;-58
2022/03/28 02:34:43;;;;;;;6.60;6.20;;;19.30;99.90;;;;;;5062136;28;20430;-59
2022/03/28 02:37:16;;;;;;;7.73;6.83;;;19.20;99.90;;;;;;5068090;28;20462;-58
2022/03/28 02:39:47;;;;;;;5.83;5.23;;;19.10;99.90;;;;;;5060976;28;20458;-59
2022/03/28 02:42:22;;;;;;;5.00;4.60;;;19.00;99.90;;;;;;5063120;28;20817;-59
2022/03/28 02:44:53;;;;;;;5.13;4.73;;;18.90;99.90;;;;;;5062974;28;20482;-59
2022/03/28 02:47:24;;;;;;;4.67;4.13;;;18.90;99.90;;;;;;5064585;28;20439;-61
2022/03/28 02:49:54;;;;;;;4.70;4.40;;;18.80;99.90;;;;;;5065351;28;20436;-60
2022/03/28 02:52:27;;;;;;;4.17;3.87;;;18.70;99.90;;;;;;5063630;28;20970;-59
2022/03/28 02:54:58;;;;;;;4.03;3.70;;;18.70;99.90;;;;;;5065238;28;20448;-60
2022/03/28 02:57:29;;;;;;;6.63;3.57;;;18.60;99.90;;;;;;5063525;28;20473;-59
2022/03/28 03:00:00;;;;;;;5.57;5.00;;;18.50;99.90;;;;;;5064823;28;20454;-59
2022/03/28 03:02:30;;;;;;;9.73;5.33;;;18.50;99.90;;;;;;5066535;28;20443;-59
2022/03/28 03:05:02;;;;;;;6.13;4.70;;;18.50;99.90;;;;;;5062739;28;20454;-59
2022/03/28 03:07:34;;;;;;;9.20;5.00;;;18.30;99.90;;;;;;5064074;28;20838;-59
2022/03/28 03:10:06;;;;;;;5.70;4.90;;;18.30;99.90;;;;;;5065046;28;20976;-59
2022/03/28 03:12:37;;;;;;;5.73;5.23;;;18.20;99.90;;;;;;5063603;28;20471;-59
2022/03/28 03:15:09;;;;;;;5.77;5.27;;;18.20;99.90;;;;;;5063048;28;20437;-59
2022/03/28 03:17:40;;;;;;;7.30;5.20;;;18.10;99.90;;;;;;5062826;28;20462;-59
2022/03/28 03:20:12;;;;;;;5.47;5.07;;;18.10;99.90;;;;;;5064726;28;20475;-59
2022/03/28 03:22:44;;;;;;;6.10;5.17;;;18.10;99.90;;;;;;5064551;28;20438;-59
2022/03/28 03:25:15;;;;;;;6.50;6.00;;;18.00;99.90;;;;;;5064419;28;20534;-59
2022/03/28 03:27:51;;;;;;;6.27;5.63;;;17.90;99.90;;;;;;5063608;28;20792;-59
2022/03/28 03:30:22;;;;;;;4.10;3.90;;;17.80;99.90;;;;;;5068556;28;20455;-59
2022/03/28 03:32:53;;;;;;;5.37;4.87;;;17.80;99.90;;;;;;5063006;28;20455;-59
2022/03/28 03:35:24;;;;;;;5.20;4.70;;;17.70;99.90;;;;;;5066416;28;20448;-58
2022/03/28 03:37:57;;;;;;;5.00;4.60;;;17.70;99.90;;;;;;5063467;28;20427;-58
2022/03/28 03:40:27;;;;;;;6.27;5.10;;;17.60;99.90;;;;;;5064340;28;20426;-58
2022/03/28 03:42:58;;;;;;;5.40;5.00;;;17.60;99.90;;;;;;5065749;28;20431;-58
2022/03/28 03:45:29;;;;;;;5.57;5.13;;;17.50;99.90;;;;;;5066735;28;20490;-59
2022/03/28 03:48:00;;;;;;;5.80;5.23;;;17.50;99.90;;;;;;5063573;28;20525;-58
2022/03/28 03:50:30;;;;;;;5.60;5.10;;;17.50;99.90;;;;;;5064033;28;20411;-58
2022/03/28 03:53:03;;;;;;;6.50;5.93;;;17.50;99.90;;;;;;5063972;28;20452;-58
2022/03/28 03:55:34;;;;;;;7.60;6.43;;;17.50;99.90;;;;;;5069249;28;20752;-58
2022/03/28 03:58:04;;;;;;;6.10;5.60;;;17.50;99.90;;;;;;5062534;28;20467;-58
2022/03/28 04:00:35;;;;;;;6.13;5.03;;;17.40;99.90;;;;;;5066533;28;20460;-58
2022/03/28 04:03:06;;;;;;;5.97;5.37;;;17.30;99.90;;;;;;5063484;28;20411;-59
2022/03/28 04:05:38;;;;;;;6.50;5.90;;;17.30;99.90;;;;;;5070146;28;20491;-58
2022/03/28 04:08:11;;;;;;;5.57;5.07;;;17.30;99.90;;;;;;5063823;28;20813;-58
2022/03/28 04:10:42;;;;;;;6.17;5.67;;;17.30;99.90;;;;;;5061422;28;20475;-57
2022/03/28 04:13:15;;;;;;;6.50;5.83;;;17.30;99.90;;;;;;5062005;28;20553;-58
2022/03/28 04:15:45;;;;;;;6.77;6.27;;;17.20;99.90;;;;;;5061621;28;20419;-57
2022/03/28 04:18:16;;;;;;;6.33;5.83;;;17.10;99.90;;;;;;5062947;28;20425;-58
2022/03/28 04:20:48;;;;;;;6.23;5.70;;;17.10;99.90;;;;;;5064583;28;20447;-58
2022/03/28 04:23:21;;;;;;;5.97;5.47;;;17.00;99.90;;;;;;5065774;28;20813;-58
2022/03/28 04:25:51;;;;;;;5.77;5.27;;;16.90;99.90;;;;;;5065214;28;20484;-58
2022/03/28 04:28:22;;;;;;;5.77;5.23;;;16.90;99.90;;;;;;5061083;28;20456;-58
2022/03/28 04:30:53;;;;;;;6.23;5.73;;;16.90;99.90;;;;;;5066001;28;20456;-58
2022/03/28 04:33:24;;;;;;;7.20;5.40;;;16.80;99.90;;;;;;5062852;28;20456;-58
2022/03/28 04:35:54;;;;;;;5.77;5.20;;;16.80;99.90;;;;;;5069064;28;20424;-58
2022/03/28 04:38:27;;;;;;;6.27;5.67;;;16.70;99.90;;;;;;5067293;28;20426;-58
2022/03/28 04:40:59;;;;;;;5.80;5.30;;;16.70;99.90;;;;;;5063751;28;20505;-59
2022/03/28 04:43:30;;;;;;;5.10;4.60;;;16.70;99.90;;;;;;5056890;28;20467;-58
2022/03/28 04:46:01;;;;;;;5.17;4.77;;;16.70;99.90;;;;;;5063642;28;20767;-59
2022/03/28 04:48:32;;;;;;;5.80;5.30;;;16.70;99.90;;;;;;5062774;28;20619;-58
2022/03/28 04:51:02;;;;;;;6.50;5.90;;;16.70;99.90;;;;;;5064560;28;20483;-59
2022/03/28 04:53:35;;;;;;;5.40;4.97;;;16.60;99.90;;;;;;5075234;28;20450;-59
2022/03/28 04:56:06;;;;;;;5.50;5.10;;;16.60;99.90;;;;;;5067871;28;20456;-58
2022/03/28 04:58:37;;;;;;;5.53;5.13;;;16.60;99.90;;;;;;5068134;28;20459;-58
2022/03/28 05:01:10;;;;;;;5.97;5.53;;;16.50;99.90;;;;;;5063398;28;20526;-59
2022/03/28 05:03:41;;;;;;;5.60;5.20;;;16.40;99.90;;;;;;5067040;28;20444;-59
2022/03/28 05:06:12;;;;;;;6.00;5.50;;;16.40;99.90;;;;;;5066915;28;20511;-58
2022/03/28 05:08:45;;;;;;;5.13;4.73;;;16.30;99.90;;;;;;5075350;28;20526;-58
2022/03/28 05:11:15;;;;;;;5.63;5.23;;;16.30;99.90;;;;;;5073704;28;20457;-58
2022/03/28 05:13:58;;;;;;;6.57;5.83;;;16.30;99.90;;;;;;5154671;27;20571;-58
2022/03/28 05:16:32;;;;;;;6.53;5.37;;;16.30;99.90;;;;;;5156339;27;20422;-57
2022/03/28 05:19:03;;;;;;;6.87;5.13;;;16.30;99.90;;;;;;5157124;27;20437;-59
2022/03/28 05:21:34;;;;;;;4.77;4.37;;;16.30;99.90;;;;;;5140181;27;20437;-57
2022/03/28 05:24:05;;;;;;;5.50;5.00;;;16.30;99.90;;;;;;5140686;27;20442;-57
2022/03/28 05:26:36;;;;;;;5.80;5.30;;;16.10;99.90;;;;;;5140382;27;20456;-57
2022/03/28 05:29:09;;;;;;;6.73;5.53;;;16.10;99.90;;;;;;5139870;27;20455;-58
2022/03/28 05:31:39;;;;;;;5.47;4.70;;;16.10;99.90;;;;;;5141165;27;20449;-57
2022/03/28 05:34:10;;;;;;;5.90;5.10;;;16.00;99.90;;;;;;5148728;27;20945;-58
2022/03/28 05:36:42;;;;;;;6.20;5.70;;;16.00;99.90;;;;;;5144426;27;20929;-59
2022/03/28 05:39:13;;;;;;;6.17;5.10;;;15.90;99.90;;;;;;5139635;27;20853;-57
2022/03/28 05:41:44;;;;;;;5.67;5.17;;;15.80;99.90;;;;;;5154138;27;20453;-57
2022/03/28 05:44:16;;;;;;;5.87;5.33;;;15.80;99.90;;;;;;5143543;27;20556;-57
2022/03/28 05:46:48;;;;;;;6.27;5.50;;;15.70;99.90;;;;;;5131140;27;20474;-58
2022/03/28 05:49:19;;;;;;;5.43;4.93;;;15.70;99.90;;;;;;5139646;28;20437;-58
2022/03/28 05:51:50;;;;;;;6.37;5.77;;;15.70;99.90;;;;;;5139561;27;20449;-58
2022/03/28 05:54:21;;;;;;;5.63;5.13;;;15.80;99.90;;;;;;5153714;27;20448;-56
2022/03/28 05:56:52;;;;;;;5.60;5.10;;;15.80;99.90;;;;;;5146993;27;20775;-58
2022/03/28 05:59:25;;;;;;;5.93;5.47;;;15.70;99.90;;;;;;5149709;27;20444;-57
2022/03/28 06:01:55;;;;;;;6.10;5.50;;;15.60;99.90;;;;;;5154410;27;20437;-58
2022/03/28 06:04:26;;;;;;;5.80;5.27;;;15.50;99.90;;;;;;5153935;27;20516;-58
2022/03/28 06:06:57;;;;;;;6.70;6.00;;;15.50;99.90;;;;;;5142598;27;20534;-58
2022/03/28 06:09:28;;;;;;;6.17;5.67;;;15.50;99.90;;;;;;5140932;27;20445;-57
2022/03/28 06:11:59;;;;;;;5.90;5.40;;;15.50;99.90;;;;;;5141032;27;20483;-57
2022/03/28 06:14:32;;;;;;;6.10;5.50;;;15.40;99.90;;;;;;5147350;27;20577;-58
2022/03/28 06:17:03;;;;;;;5.93;5.40;;;15.50;99.90;;;;;;5144203;27;20665;-58
2022/03/28 06:19:34;;;;;;;7.10;4.90;;;15.50;99.90;;;;;;5137471;27;20483;-58
2022/03/28 06:22:05;;;;;;;5.70;5.30;;;15.60;99.90;;;;;;5149507;27;20468;-60
2022/03/28 06:24:36;;;;;;;5.10;4.60;;;15.60;99.90;;;;;;5129211;27;20589;-59
2022/03/28 06:27:07;;;;;;;4.80;4.40;;;15.50;99.90;;;;;;5137096;27;20479;-58
2022/03/28 06:29:42;;;;;;;4.10;3.80;;;15.50;99.90;;;;;;5135315;27;20460;-58
2022/03/28 06:32:13;;;;;;;4.43;4.13;;;15.40;99.90;;;;;;5128572;27;20453;-58
2022/03/28 06:34:44;;;;;;;3.80;3.30;;;15.40;99.90;;;;;;5128322;27;20498;-58
2022/03/28 06:37:15;;;;;;;4.03;3.73;;;15.40;99.90;;;;;;5128291;27;20555;-58
2022/03/28 06:39:46;;;;;;;4.03;3.63;;;15.30;99.90;;;;;;5133867;27;20454;-57
2022/03/28 06:42:17;;;;;;;4.00;3.70;;;15.30;99.90;;;;;;5126245;27;20457;-59
2022/03/28 06:44:49;;;;;;;5.43;3.80;;;15.20;99.90;;;;;;5138989;27;20448;-59
2022/03/28 06:47:20;;;;;;;4.63;4.30;;;15.20;99.90;;;;;;5140474;27;20433;-58
2022/03/28 06:49:51;;;;;;;4.70;4.30;;;15.30;99.90;;;;;;5139585;27;20501;-59
2022/03/28 06:52:22;;;;;;;4.20;3.70;;;15.30;99.90;;;;;;5131012;27;20461;-58
2022/03/28 06:54:53;;;;;;;4.23;3.83;;;15.30;99.90;;;;;;5133938;27;20449;-58
2022/03/28 06:57:23;;;;;;;4.20;3.90;;;15.30;99.90;;;;;;5127855;27;20442;-58
2022/03/28 06:59:56;;;;;;;3.67;3.30;;;15.30;99.90;;;;;;5127082;27;20446;-58
2022/03/28 07:02:27;;;;;;;4.97;4.00;;;15.30;99.90;;;;;;5138621;27;20433;-58
2022/03/28 07:04:58;;;;;;;3.80;3.50;;;15.10;99.90;;;;;;5141296;27;20473;-58
2022/03/28 07:07:28;;;;;;;5.67;3.70;;;15.10;99.90;;;;;;5130939;27;20513;-59
2022/03/28 07:09:59;;;;;;;3.60;3.30;;;15.20;99.90;;;;;;5139238;27;20450;-58
2022/03/28 07:12:30;;;;;;;6.43;4.00;;;15.10;99.90;;;;;;5129681;27;20476;-58
2022/03/28 07:15:02;;;;;;;4.17;3.67;;;15.10;99.90;;;;;;5144363;27;20515;-58
2022/03/28 07:17:34;;;;;;;4.30;4.00;;;15.10;99.90;;;;;;5130807;27;20429;-58
2022/03/28 07:20:05;;;;;;;4.27;3.87;;;15.10;99.90;;;;;;5128886;27;20446;-57
2022/03/28 07:22:36;;;;;;;4.53;4.23;;;15.00;99.90;;;;;;5131857;27;20460;-58
2022/03/28 07:25:08;;;;;;;5.00;4.50;;;15.00;99.90;;;;;;5133795;27;20457;-59
2022/03/28 07:27:39;;;;;;;5.17;4.60;;;15.00;99.90;;;;;;5131519;27;20441;-58
2022/03/28 07:30:14;;;;;;;5.10;4.70;;;14.90;99.90;;;;;;5123905;28;20454;-58
2022/03/28 07:32:45;;;;;;;4.43;3.93;;;14.90;99.90;;;;;;5132064;27;20456;-57
2022/03/28 07:35:17;;;;;;;5.00;4.33;;;14.90;99.90;;;;;;5140992;27;20460;-58
2022/03/28 07:37:49;;;;;;;5.13;4.73;;;14.80;99.90;;;;;;5129861;27;20453;-58
2022/03/28 07:40:20;;;;;;;4.30;3.90;;;14.80;99.90;;;;;;5123435;28;20442;-57
2022/03/28 07:42:51;;;;;;;4.30;3.70;;;14.80;99.90;;;;;;5133807;27;20449;-58
2022/03/28 07:45:24;;;;;;;4.30;3.90;;;14.80;99.90;;;;;;5140530;27;20468;-59
2022/03/28 07:47:55;;;;;;;4.00;3.70;;;14.70;99.90;;;;;;5124800;27;20447;-58
2022/03/28 07:50:26;;;;;;;3.90;3.60;;;14.60;99.90;;;;;;5116002;27;20440;-58
2022/03/28 07:52:58;;;;;;;4.63;4.13;;;14.60;99.90;;;;;;5138869;27;20456;-58
2022/03/28 07:55:29;;;;;;;3.70;3.40;;;14.60;99.90;;;;;;5122606;27;20459;-58
2022/03/28 07:58:02;;;;;;;4.50;4.10;;;14.60;99.90;;;;;;5129685;27;20797;-58
2022/03/28 08:00:35;;;;;;;3.97;3.67;;;14.60;99.90;;;;;;5132041;27;20468;-58
2022/03/28 08:03:06;;;;;;;4.20;3.80;;;14.60;99.90;;;;;;5132757;27;20452;-59
2022/03/28 08:05:38;;;;;;;4.73;4.03;;;14.60;99.90;;;;;;5123768;28;20897;-56
2022/03/28 08:08:09;;;;;;;4.77;3.90;;;14.60;99.90;;;;;;5122462;28;20454;-58
2022/03/28 08:10:40;;;;;;;5.10;4.00;;;14.50;99.90;;;;;;5123907;27;20460;-58
2022/03/28 08:13:10;;;;;;;4.73;3.57;;;14.60;99.90;;;;;;5132821;27;20476;-58
2022/03/28 08:15:43;;;;;;;4.30;3.90;;;14.60;99.90;;;;;;5122581;28;20438;-60
2022/03/28 08:18:15;;;;;;;4.40;4.00;;;14.40;99.90;;;;;;5127982;27;20438;-55
2022/03/28 08:20:46;;;;;;;6.60;3.97;;;14.40;99.90;;;;;;5123235;28;20450;-58
2022/03/28 08:23:20;;;;;;;4.50;4.20;;;14.40;99.90;;;;;;5135633;27;20935;-56
2022/03/28 08:25:51;;;;;;;4.20;3.80;;;14.40;99.90;;;;;;5126509;27;20453;-58
2022/03/28 08:28:23;;;;;;;4.37;3.50;;;14.30;99.90;;;;;;5132311;27;20456;-57
2022/03/28 08:30:55;;;;;;;4.17;3.77;;;14.30;99.90;;;;;;5128513;27;20442;-58
2022/03/28 08:33:26;;;;;;;4.83;4.10;;;14.30;99.90;;;;;;5129917;27;20472;-57
2022/03/28 08:35:57;;;;;;;4.43;3.70;;;14.30;99.90;;;;;;5127623;27;20937;-58
2022/03/28 08:38:28;;;;;;;4.97;3.97;;;14.30;99.90;;;;;;5127763;27;20464;-59
2022/03/28 08:40:59;;;;;;;3.67;3.43;;;14.40;99.90;;;;;;5123948;27;20941;-58
2022/03/28 08:43:31;;;;;;;4.53;3.43;;;14.40;99.90;;;;;;5122275;28;20467;-58
2022/03/28 08:46:05;;;;;;;4.23;3.87;;;14.40;99.90;;;;;;5121928;28;20463;-58
2022/03/28 08:48:38;;;;;;;4.23;3.83;;;14.40;99.90;;;;;;5123103;28;20449;-57
2022/03/28 08:51:09;;;;;;;4.07;3.77;;;14.40;99.90;;;;;;5122458;28;20769;-58
2022/03/28 08:53:41;;;;;;;4.47;4.07;;;14.40;99.90;;;;;;5134105;27;20449;-58
2022/03/28 08:56:12;;;;;;;4.10;3.80;;;14.40;99.90;;;;;;5131830;27;20474;-59
2022/03/28 08:59:04;;;;;;;4.20;3.80;;;14.40;99.90;;;;;;5126005;27;20438;-59
2022/03/28 09:01:37;;;;;;;3.53;3.23;;;14.30;99.90;;;;;;5123489;27;20549;-58
2022/03/28 09:04:09;;;;;;;4.23;3.93;;;14.30;99.90;;;;;;5133092;27;20449;-59
2022/03/28 09:06:42;;;;;;;4.70;3.80;;;14.30;99.90;;;;;;5118840;27;20506;-58
2022/03/28 09:09:18;;;;;;;4.63;4.20;;;14.30;99.90;;;;;;5125695;27;20446;-58
2022/03/28 09:11:51;;;;;;;4.07;3.77;;;14.30;99.90;;;;;;5132314;28;20481;-59
2022/03/28 09:14:30;;;;;;;4.10;3.80;;;14.30;99.90;;;;;;5125989;27;20488;-58
2022/03/28 09:17:08;;;;;;;3.63;3.27;;;14.20;99.90;;;;;;5122336;28;20456;-58
2022/03/28 09:19:47;;;;;;;4.10;3.70;;;14.20;99.90;;;;;;5120423;28;20438;-59
2022/03/28 09:22:20;;;;;;;4.93;4.53;;;14.20;99.90;;;;;;5125178;28;20449;-58
2022/03/28 09:24:52;;;;;;;4.27;3.97;;;14.30;99.90;;;;;;5128276;28;20449;-58
2022/03/28 09:27:24;;;;;;;4.67;4.03;;;14.30;99.90;;;;;;5121395;28;20446;-59
2022/03/28 09:29:56;;;;;;;4.30;4.00;;;14.30;99.90;;;;;;5126145;28;20445;-58
2022/03/28 09:32:30;;;;;;;4.43;4.03;;;14.30;99.90;;;;;;5132709;28;20528;-58
2022/03/28 09:35:10;;;;;;;5.27;3.93;;;14.30;99.90;;;;;;5128833;27;20488;-59
2022/03/28 09:38:01;;;;;;;3.70;3.37;;;14.30;99.90;;;;;;5133149;27;20446;-57
2022/03/28 09:40:39;;;;;;;6.63;3.57;;;14.40;99.90;;;;;;5123175;28;20917;-58
2022/03/28 09:43:18;;;;;;;4.07;3.70;;;14.40;99.90;;;;;;5125472;28;20472;-58
2022/03/28 09:45:51;;;;;;;4.40;4.00;;;14.30;99.90;;;;;;5119577;28;20458;-58
2022/03/28 09:48:26;;;;;;;3.93;3.53;;;14.30;99.90;;;;;;5126836;28;20803;-58
2022/03/28 09:51:01;;;;;;;4.07;3.03;;;14.30;99.90;;;;;;5126245;28;20558;-59
2022/03/28 09:53:33;;;;;;;4.43;3.60;;;14.20;99.90;;;;;;5137510;27;20440;-58
2022/03/28 09:56:05;;;;;;;4.57;3.73;;;14.30;99.90;;;;;;5125658;27;20495;-58
2022/03/28 09:58:42;;;;;;;3.33;3.00;;;14.20;99.90;;;;;;5129266;28;20434;-58
2022/03/28 10:01:20;;;;;;;3.27;2.97;;;14.20;99.90;;;;;;5132479;27;20445;-58
2022/03/28 10:03:54;;;;;;;4.00;3.60;;;14.20;99.90;;;;;;5127409;27;20463;-57
2022/03/28 10:06:26;;;;;;;3.70;3.33;;;14.20;99.90;;;;;;5140022;27;20444;-58
2022/03/28 10:08:57;;;;;;;3.73;3.37;;;14.10;99.90;;;;;;5125775;28;20457;-58
2022/03/28 10:11:28;;;;;;;3.50;3.20;;;14.10;99.90;;;;;;5136340;27;20466;-58
2022/03/28 10:13:59;;;;;;;3.40;3.10;;;14.10;99.90;;;;;;5132179;27;20446;-58
2022/03/28 10:16:31;;;;;;;3.90;3.23;;;14.10;99.90;;;;;;5119836;27;20483;-58
2022/03/28 10:19:05;;;;;;;3.40;3.20;;;14.00;99.90;;;;;;5129370;27;20466;-56
2022/03/28 10:21:39;;;;;;;3.27;2.97;;;14.00;99.90;;;;;;5120277;27;20457;-57
2022/03/28 10:24:13;;;;;;;3.63;3.33;;;14.00;99.90;;;;;;5129968;27;20441;-58
2022/03/28 10:26:47;;;;;;;3.10;2.90;;;13.90;99.90;;;;;;5127655;27;20811;-58
2022/03/28 10:29:21;;;;;;;3.37;3.07;;;13.90;99.90;;;;;;5127226;27;20438;-58
2022/03/28 10:31:57;;;;;;;3.70;3.30;;;13.90;99.90;;;;;;5125683;27;20445;-56
2022/03/28 10:34:46;;;;;;;3.70;3.40;;;13.90;99.90;;;;;;5125945;27;20454;-56
2022/03/28 10:37:28;;;;;;;4.37;3.60;;;13.80;99.90;;;;;;5130511;27;20464;-58
2022/03/28 10:40:21;;;;;;;4.20;3.80;;;13.80;99.90;;;;;;5117855;27;20616;-58
2022/03/28 10:43:02;;;;;;;4.10;3.53;;;13.70;99.90;;;;;;5131015;27;20482;-58
2022/03/28 10:45:37;;;;;;;5.10;3.60;;;13.80;99.90;;;;;;5133834;27;20461;-58
2022/03/28 10:48:09;;;;;;;5.73;3.57;;;13.90;99.90;;;;;;5131598;27;20749;-58
2022/03/28 10:50:50;;;;;;;4.00;3.60;;;13.80;99.90;;;;;;5137424;27;20445;-58
2022/03/28 10:53:29;;;;;;;3.90;3.50;;;13.80;99.90;;;;;;5133851;27;20557;-58
2022/03/28 10:56:01;;;;;;;4.07;3.67;;;13.90;99.90;;;;;;5129804;27;20484;-58
2022/03/28 10:58:33;;;;;;;4.73;3.70;;;13.90;99.90;;;;;;5140425;27;20485;-58
2022/03/28 11:01:27;;;;;;;4.67;4.20;;;13.90;99.90;;;;;;5131335;27;20471;-57
2022/03/28 11:04:04;;;;;;;4.67;4.17;;;13.90;99.90;;;;;;5126692;27;20499;-58
2022/03/28 11:06:59;;;;;;;4.60;4.20;;;13.90;99.90;;;;;;5131200;27;20505;-58
2022/03/28 11:09:50;;;;;;;5.00;4.53;;;14.00;99.90;;;;;;5122218;27;20444;-58
2022/03/28 11:12:23;;;;;;;4.13;3.73;;;14.10;99.90;;;;;;5122692;28;20465;-58
2022/03/28 11:14:59;;;;;;;5.80;4.33;;;14.20;99.90;;;;;;5132859;27;20765;-59
2022/03/28 11:17:31;;;;;;;5.60;4.23;;;14.20;99.90;;;;;;5132711;27;20517;-57
2022/03/28 11:20:11;;;;;;;5.40;4.87;;;14.30;99.90;;;;;;5133977;27;20878;-58
2022/03/28 11:22:51;;;;;;;5.57;5.00;;;14.20;99.90;;;;;;5129404;27;21273;-58
2022/03/28 11:25:37;;;;;;;5.10;4.67;;;14.20;99.90;;;;;;5140145;27;20460;-58
2022/03/28 11:28:13;;;;;;;4.37;4.07;;;14.10;99.90;;;;;;5132590;27;20446;-58
2022/03/28 11:30:55;;;;;;;4.57;4.20;;;14.10;99.90;;;;;;5128491;27;20916;-57
2022/03/28 11:33:31;;;;;;;4.90;4.50;;;14.10;99.90;;;;;;5132791;27;20445;-57
2022/03/28 11:36:03;;;;;;;4.83;4.43;;;14.10;99.90;;;;;;5128779;27;20494;-57
2022/03/28 11:38:39;;;;;;;4.73;4.40;;;14.10;99.90;;;;;;5137611;27;20457;-58
2022/03/28 11:41:12;;;;;;;4.83;4.33;;;14.10;99.90;;;;;;5126397;27;20460;-58
2022/03/28 11:43:44;;;;;;;5.50;4.50;;;14.00;99.90;;;;;;5135288;27;20464;-59
2022/03/28 11:46:18;;;;;;;4.73;4.33;;;14.00;99.90;;;;;;5132047;27;20547;-57
2022/03/28 11:49:00;;;;;;;5.30;4.40;;;14.00;99.90;;;;;;5126228;27;20442;-58
2022/03/28 11:51:33;;;;;;;4.90;4.50;;;13.90;99.90;;;;;;5141261;27;20431;-56
2022/03/28 11:54:08;;;;;;;7.00;5.20;;;13.90;99.90;;;;;;5135229;27;20498;-57
2022/03/28 11:59:39;;;;;;;5.40;4.90;;;13.90;99.90;;;;;;5128011;27;20476;-58
2022/03/28 12:02:10;;;;;;;5.57;4.23;;;13.90;99.90;;;;;;5137978;27;20453;-56
2022/03/28 12:04:46;;;;;;;5.63;5.13;;;13.90;99.90;;;;;;5125461;27;20445;-56
2022/03/28 12:07:17;;;;;;;5.40;4.90;;;13.80;99.90;;;;;;5135776;27;20446;-57
2022/03/28 12:09:49;;;;;;;6.07;4.70;;;13.70;99.90;;;;;;5123882;28;20441;-57
2022/03/28 12:12:21;;;;;;;5.33;4.70;;;13.70;99.90;;;;;;5124316;27;20480;-57
2022/03/28 12:14:52;;;;;;;5.27;4.77;;;13.70;99.90;;;;;;5125753;27;20454;-57
2022/03/28 12:17:27;;;;;;;5.80;5.20;;;13.70;99.90;;;;;;5127611;27;20481;-57
2022/03/28 12:20:04;;;;;;;5.40;4.90;;;13.70;99.90;;;;;;5131563;27;20542;-57
2022/03/28 12:22:46;;;;;;;4.60;4.20;;;13.70;99.90;;;;;;5132742;27;20536;-57
2022/03/28 12:25:28;;;;;;;6.40;4.60;;;13.70;99.90;;;;;;5132082;27;20761;-58
2022/03/28 12:28:00;;;;;;;5.27;4.70;;;13.70;99.90;;;;;;5132523;27;20445;-57
2022/03/28 12:30:33;;;;;;;4.90;3.80;;;13.60;99.90;;;;;;5127409;27;20453;-57
2022/03/28 12:33:15;;;;;;;5.87;4.30;;;13.60;99.90;;;;;;5130136;27;20535;-56
2022/03/28 12:35:48;;;;;;;3.80;3.50;;;13.70;99.90;;;;;;5132432;27;20477;-57
2022/03/28 12:38:23;;;;;;;4.23;3.83;;;13.70;99.90;;;;;;5135530;27;20453;-57
2022/03/28 12:40:58;;;;;;;4.10;3.70;;;13.70;99.90;;;;;;5136801;27;20493;-56
2022/03/28 12:43:30;;;;;;;4.10;3.70;;;13.70;99.90;;;;;;5126719;27;20452;-55
2022/03/28 12:46:03;;;;;;;4.40;3.63;;;13.60;99.90;;;;;;5124823;27;20485;-57
2022/03/28 12:48:41;;;;;;;4.20;3.60;;;13.60;99.90;;;;;;5125629;27;20511;-57
2022/03/28 12:51:13;;;;;;;3.63;3.33;;;13.50;99.90;;;;;;5130217;27;20460;-56
2022/03/28 12:53:44;;;;;;;5.97;4.13;;;13.50;99.90;;;;;;5126419;27;20457;-57
2022/03/28 12:56:18;;;;;;;5.03;3.60;;;13.50;99.90;;;;;;5127465;27;20528;-56
2022/03/28 12:58:55;;;;;;;4.80;3.93;;;13.40;99.90;;;;;;5129342;27;20456;-57
2022/03/28 13:01:28;;;;;;;4.13;2.90;;;13.50;99.90;;;;;;5116484;28;20445;-57
2022/03/28 13:04:16;;;;;;;3.00;2.73;;;13.40;99.90;;;;;;5130725;27;20824;-57
2022/03/28 13:06:50;;;;;;;2.83;2.63;;;13.30;99.90;;;;;;5122886;28;20955;-57
2022/03/28 13:09:22;;;;;;;3.97;2.97;;;13.30;99.90;;;;;;5122383;28;20446;-57
2022/03/28 13:11:54;;;;;;;4.37;2.90;;;13.30;99.90;;;;;;5118583;28;20483;-58
2022/03/28 13:14:26;;;;;;;3.97;2.97;;;13.20;99.90;;;;;;5126734;28;20486;-57
2022/03/28 13:17:10;;;;;;;4.03;3.00;;;13.20;99.90;;;;;;5127134;28;20500;-57
2022/03/28 13:19:42;;;;;;;3.90;2.90;;;13.10;99.90;;;;;;5129063;27;20448;-58
2022/03/28 13:22:13;;;;;;;2.80;2.60;;;13.10;99.90;;;;;;5131910;28;20453;-56